sensor_id;sensor_type;location;lat;lon;timestamp;temperature;humidity
10300;DHT22;5195;48.562;9.192;2023-04-03T00:00:37;7.40;47.60
10300;DHT22;5195;48.562;9.192;2023-04-03T00:03:13;7.10;48.30
10300;DHT22;5195;48.562;9.192;2023-04-03T00:05:49;7.20;48.00
10300;DHT22;5195;48.562;9.192;2023-04-03T00:08:24;7.20;48.30
10300;DHT22;5195;48.562;9.192;2023-04-03T00:11:00;7.30;47.10
10300;DHT22;5195;48.562;9.192;2023-04-03T00:13:36;7.40;47.10
10300;DHT22;5195;48.562;9.192;2023-04-03T00:16:12;7.40;46.90
10300;DHT22;5195;48.562;9.192;2023-04-03T00:18:47;7.40;47.30
10300;DHT22;5195;48.562;9.192;2023-04-03T00:21:24;7.20;48.00
10300;DHT22;5195;48.562;9.192;2023-04-03T00:23:59;6.90;48.20
10300;DHT22;5195;48.562;9.192;2023-04-03T00:26:35;7.10;47.40
10300;DHT22;5195;48.562;9.192;2023-04-03T00:29:10;7.40;46.60
10300;DHT22;5195;48.562;9.192;2023-04-03T00:31:46;7.40;47.20
10300;DHT22;5195;48.562;9.192;2023-04-03T00:34:22;7.20;46.70
10300;DHT22;5195;48.562;9.192;2023-04-03T00:36:58;7.20;46.70
10300;DHT22;5195;48.562;9.192;2023-04-03T00:39:33;7.20;47.10
10300;DHT22;5195;48.562;9.192;2023-04-03T00:42:09;6.90;47.60
10300;DHT22;5195;48.562;9.192;2023-04-03T00:47:20;6.50;48.70
10300;DHT22;5195;48.562;9.192;2023-04-03T00:49:56;6.70;47.70
10300;DHT22;5195;48.562;9.192;2023-04-03T00:52:31;7.10;46.60
10300;DHT22;5195;48.562;9.192;2023-04-03T00:55:07;7.10;47.00
10300;DHT22;5195;48.562;9.192;2023-04-03T00:57:43;7.10;46.70
10300;DHT22;5195;48.562;9.192;2023-04-03T01:00:19;7.40;45.80
10300;DHT22;5195;48.562;9.192;2023-04-03T01:02:54;7.30;46.20
10300;DHT22;5195;48.562;9.192;2023-04-03T01:05:29;6.90;46.80
10300;DHT22;5195;48.562;9.192;2023-04-03T01:08:05;7.00;46.50
10300;DHT22;5195;48.562;9.192;2023-04-03T01:10:41;7.30;45.90
10300;DHT22;5195;48.562;9.192;2023-04-03T01:13:17;7.50;45.60
10300;DHT22;5195;48.562;9.192;2023-04-03T01:15:52;7.60;45.10
10300;DHT22;5195;48.562;9.192;2023-04-03T01:18:28;7.00;46.40
10300;DHT22;5195;48.562;9.192;2023-04-03T01:24:30;6.80;46.70
10300;DHT22;5195;48.562;9.192;2023-04-03T01:27:04;6.80;46.70
10300;DHT22;5195;48.562;9.192;2023-04-03T01:29:39;6.80;47.10
10300;DHT22;5195;48.562;9.192;2023-04-03T01:32:15;6.50;47.50
10300;DHT22;5195;48.562;9.192;2023-04-03T01:34:50;6.30;48.10
10300;DHT22;5195;48.562;9.192;2023-04-03T01:37:26;6.10;48.60
10300;DHT22;5195;48.562;9.192;2023-04-03T01:40:02;6.30;48.00
10300;DHT22;5195;48.562;9.192;2023-04-03T01:42:37;6.70;47.00
10300;DHT22;5195;48.562;9.192;2023-04-03T01:45:12;7.00;46.10
10300;DHT22;5195;48.562;9.192;2023-04-03T01:47:49;7.40;45.20
10300;DHT22;5195;48.562;9.192;2023-04-03T01:50:25;7.40;45.20
10300;DHT22;5195;48.562;9.192;2023-04-03T01:53:01;7.20;45.80
10300;DHT22;5195;48.562;9.192;2023-04-03T01:55:37;7.10;45.60
10300;DHT22;5195;48.562;9.192;2023-04-03T01:58:12;6.90;46.10
10300;DHT22;5195;48.562;9.192;2023-04-03T02:00:48;6.90;45.80
10300;DHT22;5195;48.562;9.192;2023-04-03T02:03:23;7.20;45.50
10300;DHT22;5195;48.562;9.192;2023-04-03T02:05:59;7.00;45.90
10300;DHT22;5195;48.562;9.192;2023-04-03T02:08:34;6.60;46.60
10300;DHT22;5195;48.562;9.192;2023-04-03T02:11:10;6.70;46.30
10300;DHT22;5195;48.562;9.192;2023-04-03T02:13:46;7.00;45.60
10300;DHT22;5195;48.562;9.192;2023-04-03T02:16:21;7.20;45.00
10300;DHT22;5195;48.562;9.192;2023-04-03T02:18:57;7.10;45.50
10300;DHT22;5195;48.562;9.192;2023-04-03T02:21:32;6.70;46.20
10300;DHT22;5195;48.562;9.192;2023-04-03T02:24:08;6.80;46.10
10300;DHT22;5195;48.562;9.192;2023-04-03T02:26:43;6.70;46.40
10300;DHT22;5195;48.562;9.192;2023-04-03T02:29:19;6.70;45.90
10300;DHT22;5195;48.562;9.192;2023-04-03T02:31:55;7.00;45.30
10300;DHT22;5195;48.562;9.192;2023-04-03T02:34:30;6.90;45.70
10300;DHT22;5195;48.562;9.192;2023-04-03T02:37:06;6.60;46.10
10300;DHT22;5195;48.562;9.192;2023-04-03T02:39:42;6.60;46.10
10300;DHT22;5195;48.562;9.192;2023-04-03T02:42:18;7.00;45.70
10300;DHT22;5195;48.562;9.192;2023-04-03T02:44:53;7.20;45.00
10300;DHT22;5195;48.562;9.192;2023-04-03T02:47:29;7.40;44.50
10300;DHT22;5195;48.562;9.192;2023-04-03T02:50:04;7.50;44.10
10300;DHT22;5195;48.562;9.192;2023-04-03T02:52:40;7.30;44.80
10300;DHT22;5195;48.562;9.192;2023-04-03T02:55:16;6.90;45.70
10300;DHT22;5195;48.562;9.192;2023-04-03T02:57:52;6.90;45.70
10300;DHT22;5195;48.562;9.192;2023-04-03T03:00:27;6.80;45.80
10300;DHT22;5195;48.562;9.192;2023-04-03T03:03:04;6.60;46.10
10300;DHT22;5195;48.562;9.192;2023-04-03T03:05:41;6.60;46.10
10300;DHT22;5195;48.562;9.192;2023-04-03T03:08:17;6.40;46.90
10300;DHT22;5195;48.562;9.192;2023-04-03T03:10:53;6.40;46.90
10300;DHT22;5195;48.562;9.192;2023-04-03T03:13:28;6.40;47.00
10300;DHT22;5195;48.562;9.192;2023-04-03T03:16:04;6.90;45.70
10300;DHT22;5195;48.562;9.192;2023-04-03T03:18:44;6.80;45.80
10300;DHT22;5195;48.562;9.192;2023-04-03T03:21:20;6.60;46.50
10300;DHT22;5195;48.562;9.192;2023-04-03T03:23:55;6.70;45.70
10300;DHT22;5195;48.562;9.192;2023-04-03T03:26:31;6.70;45.90
10300;DHT22;5195;48.562;9.192;2023-04-03T03:29:07;6.40;46.40
10300;DHT22;5195;48.562;9.192;2023-04-03T03:31:42;6.20;47.10
10300;DHT22;5195;48.562;9.192;2023-04-03T03:34:18;6.40;46.70
10300;DHT22;5195;48.562;9.192;2023-04-03T03:36:53;6.50;46.90
10300;DHT22;5195;48.562;9.192;2023-04-03T03:39:29;6.30;47.30
10300;DHT22;5195;48.562;9.192;2023-04-03T03:42:04;6.20;47.80
10300;DHT22;5195;48.562;9.192;2023-04-03T03:44:40;6.00;48.00
10300;DHT22;5195;48.562;9.192;2023-04-03T03:47:17;6.30;46.90
10300;DHT22;5195;48.562;9.192;2023-04-03T03:49:54;6.60;45.90
10300;DHT22;5195;48.562;9.192;2023-04-03T03:52:29;6.60;46.30
10300;DHT22;5195;48.562;9.192;2023-04-03T03:55:05;6.80;45.50
10300;DHT22;5195;48.562;9.192;2023-04-03T03:57:41;6.60;45.60
10300;DHT22;5195;48.562;9.192;2023-04-03T04:00:16;6.40;46.20
10300;DHT22;5195;48.562;9.192;2023-04-03T04:02:52;6.10;46.70
10300;DHT22;5195;48.562;9.192;2023-04-03T04:05:28;6.30;46.30
10300;DHT22;5195;48.562;9.192;2023-04-03T04:08:04;6.60;45.80
10300;DHT22;5195;48.562;9.192;2023-04-03T04:10:40;6.50;45.90
10300;DHT22;5195;48.562;9.192;2023-04-03T04:13:16;6.50;46.10
10300;DHT22;5195;48.562;9.192;2023-04-03T04:15:54;6.20;46.60
10300;DHT22;5195;48.562;9.192;2023-04-03T04:18:30;6.20;46.60
10300;DHT22;5195;48.562;9.192;2023-04-03T04:21:25;6.30;46.60
10300;DHT22;5195;48.562;9.192;2023-04-03T04:24:01;6.30;46.80
10300;DHT22;5195;48.562;9.192;2023-04-03T04:26:36;6.50;46.30
10300;DHT22;5195;48.562;9.192;2023-04-03T04:29:13;6.50;46.00
10300;DHT22;5195;48.562;9.192;2023-04-03T04:31:48;6.50;46.00
10300;DHT22;5195;48.562;9.192;2023-04-03T04:34:25;6.80;45.40
10300;DHT22;5195;48.562;9.192;2023-04-03T04:37:00;7.10;44.90
10300;DHT22;5195;48.562;9.192;2023-04-03T04:39:36;6.90;45.40
10300;DHT22;5195;48.562;9.192;2023-04-03T04:42:12;6.90;45.00
10300;DHT22;5195;48.562;9.192;2023-04-03T04:44:47;6.80;45.40
10300;DHT22;5195;48.562;9.192;2023-04-03T04:47:23;6.50;46.10
10300;DHT22;5195;48.562;9.192;2023-04-03T04:49:58;6.30;46.70
10300;DHT22;5195;48.562;9.192;2023-04-03T04:52:34;6.40;46.10
10300;DHT22;5195;48.562;9.192;2023-04-03T04:55:09;6.40;46.30
10300;DHT22;5195;48.562;9.192;2023-04-03T04:57:45;6.60;45.40
10300;DHT22;5195;48.562;9.192;2023-04-03T05:00:21;6.60;45.60
10300;DHT22;5195;48.562;9.192;2023-04-03T05:02:56;6.70;45.40
10300;DHT22;5195;48.562;9.192;2023-04-03T05:05:32;7.00;44.10
10300;DHT22;5195;48.562;9.192;2023-04-03T05:08:07;7.30;43.30
10300;DHT22;5195;48.562;9.192;2023-04-03T05:10:44;7.50;42.50
10300;DHT22;5195;48.562;9.192;2023-04-03T05:13:19;7.60;42.00
10300;DHT22;5195;48.562;9.192;2023-04-03T05:15:54;7.60;40.80
10300;DHT22;5195;48.562;9.192;2023-04-03T05:18:30;7.70;40.80
10300;DHT22;5195;48.562;9.192;2023-04-03T05:21:06;7.40;41.90
10300;DHT22;5195;48.562;9.192;2023-04-03T05:23:42;7.00;42.80
10300;DHT22;5195;48.562;9.192;2023-04-03T05:26:18;7.20;41.00
10300;DHT22;5195;48.562;9.192;2023-04-03T05:28:55;7.20;41.00
10300;DHT22;5195;48.562;9.192;2023-04-03T05:31:31;7.40;40.40
10300;DHT22;5195;48.562;9.192;2023-04-03T05:34:07;7.20;41.10
10300;DHT22;5195;48.562;9.192;2023-04-03T05:36:43;7.10;41.00
10300;DHT22;5195;48.562;9.192;2023-04-03T05:39:18;7.00;41.70
10300;DHT22;5195;48.562;9.192;2023-04-03T05:41:54;6.70;42.40
10300;DHT22;5195;48.562;9.192;2023-04-03T05:44:29;6.50;43.20
10300;DHT22;5195;48.562;9.192;2023-04-03T05:47:05;6.60;42.70
10300;DHT22;5195;48.562;9.192;2023-04-03T05:49:40;7.00;41.50
10300;DHT22;5195;48.562;9.192;2023-04-03T05:54:58;6.80;41.60
10300;DHT22;5195;48.562;9.192;2023-04-03T05:57:34;6.80;41.60
10300;DHT22;5195;48.562;9.192;2023-04-03T06:00:13;7.10;40.80
10300;DHT22;5195;48.562;9.192;2023-04-03T06:02:49;7.10;41.50
10300;DHT22;5195;48.562;9.192;2023-04-03T06:05:24;7.20;40.80
10300;DHT22;5195;48.562;9.192;2023-04-03T06:08:00;7.10;41.20
10300;DHT22;5195;48.562;9.192;2023-04-03T06:10:36;6.90;41.80
10300;DHT22;5195;48.562;9.192;2023-04-03T06:13:11;7.00;40.30
10300;DHT22;5195;48.562;9.192;2023-04-03T06:15:47;7.30;39.60
10300;DHT22;5195;48.562;9.192;2023-04-03T06:18:22;7.60;39.10
10300;DHT22;5195;48.562;9.192;2023-04-03T06:20:58;7.80;38.70
10300;DHT22;5195;48.562;9.192;2023-04-03T06:23:34;7.60;39.60
10300;DHT22;5195;48.562;9.192;2023-04-03T06:26:09;7.20;40.50
10300;DHT22;5195;48.562;9.192;2023-04-03T06:28:45;6.90;41.20
10300;DHT22;5195;48.562;9.192;2023-04-03T06:31:22;7.00;40.70
10300;DHT22;5195;48.562;9.192;2023-04-03T06:33:57;7.40;40.00
10300;DHT22;5195;48.562;9.192;2023-04-03T06:36:33;7.60;39.30
10300;DHT22;5195;48.562;9.192;2023-04-03T06:39:11;7.80;39.10
10300;DHT22;5195;48.562;9.192;2023-04-03T06:41:44;7.60;39.60
10300;DHT22;5195;48.562;9.192;2023-04-03T06:44:20;7.50;39.50
10300;DHT22;5195;48.562;9.192;2023-04-03T06:46:55;7.70;39.40
10300;DHT22;5195;48.562;9.192;2023-04-03T06:49:31;7.50;40.20
10300;DHT22;5195;48.562;9.192;2023-04-03T06:52:07;7.50;39.70
10300;DHT22;5195;48.562;9.192;2023-04-03T06:54:43;7.90;39.10
10300;DHT22;5195;48.562;9.192;2023-04-03T06:57:19;7.80;39.10
10300;DHT22;5195;48.562;9.192;2023-04-03T06:59:56;8.00;39.00
10300;DHT22;5195;48.562;9.192;2023-04-03T07:02:31;8.10;38.50
10300;DHT22;5195;48.562;9.192;2023-04-03T07:05:08;8.30;38.70
10300;DHT22;5195;48.562;9.192;2023-04-03T07:07:43;8.30;38.70
10300;DHT22;5195;48.562;9.192;2023-04-03T07:10:19;8.40;38.30
10300;DHT22;5195;48.562;9.192;2023-04-03T07:12:54;8.20;39.30
10300;DHT22;5195;48.562;9.192;2023-04-03T07:15:31;7.80;40.10
10300;DHT22;5195;48.562;9.192;2023-04-03T07:18:06;7.50;40.90
10300;DHT22;5195;48.562;9.192;2023-04-03T07:20:42;7.30;41.40
10300;DHT22;5195;48.562;9.192;2023-04-03T07:23:18;7.40;40.80
10300;DHT22;5195;48.562;9.192;2023-04-03T07:25:54;7.30;41.30
10300;DHT22;5195;48.562;9.192;2023-04-03T07:28:30;7.30;41.30
10300;DHT22;5195;48.562;9.192;2023-04-03T07:31:06;7.10;41.80
10300;DHT22;5195;48.562;9.192;2023-04-03T07:33:42;7.30;40.90
10300;DHT22;5195;48.562;9.192;2023-04-03T07:36:19;7.20;40.80
10300;DHT22;5195;48.562;9.192;2023-04-03T07:38:54;7.40;41.40
10300;DHT22;5195;48.562;9.192;2023-04-03T07:41:29;7.60;40.40
10300;DHT22;5195;48.562;9.192;2023-04-03T07:44:05;8.00;40.40
10300;DHT22;5195;48.562;9.192;2023-04-03T07:46:40;8.40;39.90
10300;DHT22;5195;48.562;9.192;2023-04-03T07:49:17;8.70;39.80
10300;DHT22;5195;48.562;9.192;2023-04-03T07:51:51;8.60;39.60
10300;DHT22;5195;48.562;9.192;2023-04-03T07:54:28;8.40;39.90
10300;DHT22;5195;48.562;9.192;2023-04-03T07:57:03;8.40;39.80
10300;DHT22;5195;48.562;9.192;2023-04-03T07:59:39;8.40;40.40
10300;DHT22;5195;48.562;9.192;2023-04-03T08:02:15;8.30;41.00
10300;DHT22;5195;48.562;9.192;2023-04-03T08:05:10;8.50;40.30
10300;DHT22;5195;48.562;9.192;2023-04-03T08:07:46;8.60;40.80
10300;DHT22;5195;48.562;9.192;2023-04-03T08:10:21;8.90;39.20
10300;DHT22;5195;48.562;9.192;2023-04-03T08:12:58;9.00;39.90
10300;DHT22;5195;48.562;9.192;2023-04-03T08:15:35;8.70;41.00
10300;DHT22;5195;48.562;9.192;2023-04-03T08:18:10;8.60;40.90
10300;DHT22;5195;48.562;9.192;2023-04-03T08:20:46;8.80;39.60
10300;DHT22;5195;48.562;9.192;2023-04-03T08:23:21;8.90;40.00
10300;DHT22;5195;48.562;9.192;2023-04-03T08:25:57;9.00;38.70
10300;DHT22;5195;48.562;9.192;2023-04-03T08:28:33;9.30;38.20
10300;DHT22;5195;48.562;9.192;2023-04-03T08:31:10;9.50;37.70
10300;DHT22;5195;48.562;9.192;2023-04-03T08:33:44;9.50;39.00
10300;DHT22;5195;48.562;9.192;2023-04-03T08:36:20;9.60;38.30
10300;DHT22;5195;48.562;9.192;2023-04-03T08:38:55;9.50;38.90
10300;DHT22;5195;48.562;9.192;2023-04-03T08:41:41;9.60;37.80
10300;DHT22;5195;48.562;9.192;2023-04-03T08:47:25;10.00;35.80
10300;DHT22;5195;48.562;9.192;2023-04-03T08:50:00;10.20;35.60
10300;DHT22;5195;48.562;9.192;2023-04-03T08:52:39;9.90;37.60
10300;DHT22;5195;48.562;9.192;2023-04-03T08:58:14;9.70;38.40
10300;DHT22;5195;48.562;9.192;2023-04-03T09:00:50;10.00;35.80
10300;DHT22;5195;48.562;9.192;2023-04-03T09:03:24;9.90;36.70
10300;DHT22;5195;48.562;9.192;2023-04-03T09:06:13;9.90;37.60
10300;DHT22;5195;48.562;9.192;2023-04-03T09:14:32;9.50;38.00
10300;DHT22;5195;48.562;9.192;2023-04-03T09:17:19;9.60;37.50
10300;DHT22;5195;48.562;9.192;2023-04-03T09:19:57;9.60;37.50
10300;DHT22;5195;48.562;9.192;2023-04-03T09:22:31;9.60;38.40
10300;DHT22;5195;48.562;9.192;2023-04-03T09:25:15;9.40;39.00
10300;DHT22;5195;48.562;9.192;2023-04-03T09:27:51;9.20;39.60
10300;DHT22;5195;48.562;9.192;2023-04-03T09:30:26;9.00;39.90
10300;DHT22;5195;48.562;9.192;2023-04-03T09:33:01;8.90;40.10
10300;DHT22;5195;48.562;9.192;2023-04-03T09:35:37;8.80;40.60
10300;DHT22;5195;48.562;9.192;2023-04-03T09:40:49;9.50;37.30
10300;DHT22;5195;48.562;9.192;2023-04-03T09:43:34;9.40;37.90
10300;DHT22;5195;48.562;9.192;2023-04-03T09:49:03;9.30;37.90
10300;DHT22;5195;48.562;9.192;2023-04-03T09:51:39;9.30;37.90
10300;DHT22;5195;48.562;9.192;2023-04-03T09:54:26;9.70;37.10
10300;DHT22;5195;48.562;9.192;2023-04-03T09:57:07;9.60;37.70
10300;DHT22;5195;48.562;9.192;2023-04-03T09:59:36;9.80;36.60
10300;DHT22;5195;48.562;9.192;2023-04-03T10:02:22;10.00;35.00
10300;DHT22;5195;48.562;9.192;2023-04-03T10:04:56;9.90;37.00
10300;DHT22;5195;48.562;9.192;2023-04-03T10:07:35;10.00;36.10
10300;DHT22;5195;48.562;9.192;2023-04-03T10:10:18;10.30;34.40
10300;DHT22;5195;48.562;9.192;2023-04-03T10:13:03;10.50;33.70
10300;DHT22;5195;48.562;9.192;2023-04-03T10:15:26;10.10;34.30
10300;DHT22;5195;48.562;9.192;2023-04-03T10:18:02;10.10;34.30
10300;DHT22;5195;48.562;9.192;2023-04-03T10:20:39;10.40;34.20
10300;DHT22;5195;48.562;9.192;2023-04-03T10:23:34;10.20;35.00
10300;DHT22;5195;48.562;9.192;2023-04-03T10:26:35;9.60;37.40
10300;DHT22;5195;48.562;9.192;2023-04-03T10:35:07;9.10;38.40
10300;DHT22;5195;48.562;9.192;2023-04-03T10:38:08;9.00;38.50
10300;DHT22;5195;48.562;9.192;2023-04-03T10:46:06;9.30;34.60
10300;DHT22;5195;48.562;9.192;2023-04-03T10:54:24;9.10;37.20
10300;DHT22;5195;48.562;9.192;2023-04-03T10:57:03;9.00;37.50
10300;DHT22;5195;48.562;9.192;2023-04-03T11:02:32;8.90;38.20
10300;DHT22;5195;48.562;9.192;2023-04-03T11:05:13;9.20;34.80
10300;DHT22;5195;48.562;9.192;2023-04-03T11:07:45;9.30;35.60
10300;DHT22;5195;48.562;9.192;2023-04-03T11:15:58;9.10;36.80
10300;DHT22;5195;48.562;9.192;2023-04-03T11:18:39;9.10;36.80
10300;DHT22;5195;48.562;9.192;2023-04-03T11:21:21;9.10;37.10
10300;DHT22;5195;48.562;9.192;2023-04-03T11:23:56;9.00;36.50
10300;DHT22;5195;48.562;9.192;2023-04-03T11:26:35;8.80;36.50
10300;DHT22;5195;48.562;9.192;2023-04-03T11:29:09;9.00;34.70
10300;DHT22;5195;48.562;9.192;2023-04-03T11:34:59;9.00;35.80
10300;DHT22;5195;48.562;9.192;2023-04-03T11:37:39;9.30;33.70
10300;DHT22;5195;48.562;9.192;2023-04-03T11:40:28;9.40;34.40
10300;DHT22;5195;48.562;9.192;2023-04-03T11:43:04;9.60;33.10
10300;DHT22;5195;48.562;9.192;2023-04-03T11:45:49;10.00;31.50
10300;DHT22;5195;48.562;9.192;2023-04-03T11:53:48;9.90;33.50
10300;DHT22;5195;48.562;9.192;2023-04-03T12:01:55;9.90;33.20
10300;DHT22;5195;48.562;9.192;2023-04-03T12:04:21;9.90;32.70
10300;DHT22;5195;48.562;9.192;2023-04-03T12:07:00;10.30;31.10
10300;DHT22;5195;48.562;9.192;2023-04-03T12:12:22;9.80;33.80
10300;DHT22;5195;48.562;9.192;2023-04-03T12:15:11;9.60;34.30
10300;DHT22;5195;48.562;9.192;2023-04-03T12:17:31;9.70;32.40
10300;DHT22;5195;48.562;9.192;2023-04-03T12:23:33;9.70;34.30
10300;DHT22;5195;48.562;9.192;2023-04-03T12:26:19;9.60;34.80
10300;DHT22;5195;48.562;9.192;2023-04-03T12:28:54;9.80;32.80
10300;DHT22;5195;48.562;9.192;2023-04-03T12:31:34;9.90;33.80
10300;DHT22;5195;48.562;9.192;2023-04-03T12:34:15;9.80;34.30
10300;DHT22;5195;48.562;9.192;2023-04-03T12:39:40;9.80;32.30
10300;DHT22;5195;48.562;9.192;2023-04-03T12:42:16;10.20;30.50
10300;DHT22;5195;48.562;9.192;2023-04-03T12:45:09;10.20;31.50
10300;DHT22;5195;48.562;9.192;2023-04-03T12:47:33;10.30;30.50
10300;DHT22;5195;48.562;9.192;2023-04-03T12:50:29;10.60;29.90
10300;DHT22;5195;48.562;9.192;2023-04-03T12:55:40;10.30;30.90
10300;DHT22;5195;48.562;9.192;2023-04-03T12:58:26;10.30;30.90
10300;DHT22;5195;48.562;9.192;2023-04-03T13:01:13;10.50;31.30
10300;DHT22;5195;48.562;9.192;2023-04-03T13:03:48;10.40;31.10
10300;DHT22;5195;48.562;9.192;2023-04-03T13:06:28;10.10;31.90
10300;DHT22;5195;48.562;9.192;2023-04-03T13:09:02;9.90;33.20
10300;DHT22;5195;48.562;9.192;2023-04-03T13:11:38;9.70;33.80
10300;DHT22;5195;48.562;9.192;2023-04-03T13:14:21;9.80;32.30
10300;DHT22;5195;48.562;9.192;2023-04-03T13:17:03;10.20;30.50
10300;DHT22;5195;48.562;9.192;2023-04-03T13:19:35;10.50;30.00
10300;DHT22;5195;48.562;9.192;2023-04-03T13:22:18;10.50;31.20
10300;DHT22;5195;48.562;9.192;2023-04-03T13:24:47;10.80;30.00
10300;DHT22;5195;48.562;9.192;2023-04-03T13:27:23;10.80;30.00
10300;DHT22;5195;48.562;9.192;2023-04-03T13:29:59;10.80;31.20
10300;DHT22;5195;48.562;9.192;2023-04-03T13:32:34;10.50;31.60
10300;DHT22;5195;48.562;9.192;2023-04-03T13:35:31;10.60;29.90
10300;DHT22;5195;48.562;9.192;2023-04-03T13:40:55;11.00;28.80
10300;DHT22;5195;48.562;9.192;2023-04-03T13:43:31;11.20;28.60
10300;DHT22;5195;48.562;9.192;2023-04-03T13:48:52;11.00;29.40
10300;DHT22;5195;48.562;9.192;2023-04-03T13:51:27;10.50;30.10
10300;DHT22;5195;48.562;9.192;2023-04-03T13:54:10;10.20;31.00
10300;DHT22;5195;48.562;9.192;2023-04-03T13:56:38;10.20;29.40
10300;DHT22;5195;48.562;9.192;2023-04-03T14:04:51;10.80;29.20
10300;DHT22;5195;48.562;9.192;2023-04-03T14:07:24;10.80;29.20
10300;DHT22;5195;48.562;9.192;2023-04-03T14:10:00;10.70;30.00
10300;DHT22;5195;48.562;9.192;2023-04-03T14:12:36;10.50;30.80
10300;DHT22;5195;48.562;9.192;2023-04-03T14:15:26;10.20;31.40
10300;DHT22;5195;48.562;9.192;2023-04-03T14:18:00;10.40;30.10
10300;DHT22;5195;48.562;9.192;2023-04-03T14:20:35;10.50;31.00
10300;DHT22;5195;48.562;9.192;2023-04-03T14:23:11;10.50;29.30
10300;DHT22;5195;48.562;9.192;2023-04-03T14:25:47;10.80;29.20
10300;DHT22;5195;48.562;9.192;2023-04-03T14:28:22;11.00;28.30
10300;DHT22;5195;48.562;9.192;2023-04-03T14:30:58;10.70;28.70
10300;DHT22;5195;48.562;9.192;2023-04-03T14:33:34;10.80;28.80
10300;DHT22;5195;48.562;9.192;2023-04-03T14:36:17;10.70;29.80
10300;DHT22;5195;48.562;9.192;2023-04-03T14:38:52;10.40;30.50
10300;DHT22;5195;48.562;9.192;2023-04-03T14:41:27;10.10;31.60
10300;DHT22;5195;48.562;9.192;2023-04-03T14:44:03;10.20;29.30
10300;DHT22;5195;48.562;9.192;2023-04-03T14:46:40;10.50;29.10
10300;DHT22;5195;48.562;9.192;2023-04-03T14:49:15;10.40;29.80
10300;DHT22;5195;48.562;9.192;2023-04-03T14:51:50;10.50;29.10
10300;DHT22;5195;48.562;9.192;2023-04-03T14:54:25;10.70;29.50
10300;DHT22;5195;48.562;9.192;2023-04-03T14:57:02;10.90;29.00
10300;DHT22;5195;48.562;9.192;2023-04-03T14:59:38;11.10;28.80
10300;DHT22;5195;48.562;9.192;2023-04-03T15:02:34;10.90;29.60
10300;DHT22;5195;48.562;9.192;2023-04-03T15:05:09;10.90;29.00
10300;DHT22;5195;48.562;9.192;2023-04-03T15:07:49;11.10;28.30
10300;DHT22;5195;48.562;9.192;2023-04-03T15:10:25;10.60;29.50
10300;DHT22;5195;48.562;9.192;2023-04-03T15:12:59;10.50;29.40
10300;DHT22;5195;48.562;9.192;2023-04-03T15:15:35;10.60;28.70
10300;DHT22;5195;48.562;9.192;2023-04-03T15:18:19;10.50;29.40
10300;DHT22;5195;48.562;9.192;2023-04-03T15:20:53;10.20;29.70
10300;DHT22;5195;48.562;9.192;2023-04-03T15:23:29;9.70;31.80
10300;DHT22;5195;48.562;9.192;2023-04-03T15:26:05;9.70;31.80
10300;DHT22;5195;48.562;9.192;2023-04-03T15:28:40;9.60;32.20
10300;DHT22;5195;48.562;9.192;2023-04-03T15:31:16;9.50;32.50
10300;DHT22;5195;48.562;9.192;2023-04-03T15:33:51;9.70;30.50
10300;DHT22;5195;48.562;9.192;2023-04-03T15:36:27;9.70;31.20
10300;DHT22;5195;48.562;9.192;2023-04-03T15:39:02;9.60;31.80
10300;DHT22;5195;48.562;9.192;2023-04-03T15:41:38;9.70;30.50
10300;DHT22;5195;48.562;9.192;2023-04-03T15:44:14;10.10;29.30
10300;DHT22;5195;48.562;9.192;2023-04-03T15:46:51;10.00;29.90
10300;DHT22;5195;48.562;9.192;2023-04-03T15:49:26;9.80;31.50
10300;DHT22;5195;48.562;9.192;2023-04-03T15:52:02;9.90;30.10
10300;DHT22;5195;48.562;9.192;2023-04-03T15:54:38;10.20;28.90
10300;DHT22;5195;48.562;9.192;2023-04-03T15:57:13;10.10;29.60
10300;DHT22;5195;48.562;9.192;2023-04-03T15:59:49;9.80;30.80
10300;DHT22;5195;48.562;9.192;2023-04-03T16:02:25;9.60;31.50
10300;DHT22;5195;48.562;9.192;2023-04-03T16:05:04;9.70;30.20
10300;DHT22;5195;48.562;9.192;2023-04-03T16:07:39;10.00;29.00
10300;DHT22;5195;48.562;9.192;2023-04-03T16:10:15;10.00;29.70
10300;DHT22;5195;48.562;9.192;2023-04-03T16:12:50;9.70;31.10
10300;DHT22;5195;48.562;9.192;2023-04-03T16:15:26;9.60;31.80
10300;DHT22;5195;48.562;9.192;2023-04-03T16:18:02;9.80;30.50
10300;DHT22;5195;48.562;9.192;2023-04-03T16:20:37;10.10;28.70
10300;DHT22;5195;48.562;9.192;2023-04-03T16:23:13;10.40;28.80
10300;DHT22;5195;48.562;9.192;2023-04-03T16:25:48;10.60;28.50
10300;DHT22;5195;48.562;9.192;2023-04-03T16:28:24;10.40;29.30
10300;DHT22;5195;48.562;9.192;2023-04-03T16:30:59;10.00;30.00
10300;DHT22;5195;48.562;9.192;2023-04-03T16:33:35;10.00;29.10
10300;DHT22;5195;48.562;9.192;2023-04-03T16:36:11;9.80;30.60
10300;DHT22;5195;48.562;9.192;2023-04-03T16:38:46;9.60;31.50
10300;DHT22;5195;48.562;9.192;2023-04-03T16:41:22;9.30;32.10
10300;DHT22;5195;48.562;9.192;2023-04-03T16:43:57;9.50;31.20
10300;DHT22;5195;48.562;9.192;2023-04-03T16:46:33;9.80;29.90
10300;DHT22;5195;48.562;9.192;2023-04-03T16:49:08;9.70;30.20
10300;DHT22;5195;48.562;9.192;2023-04-03T16:51:44;9.40;30.60
10300;DHT22;5195;48.562;9.192;2023-04-03T16:54:20;9.10;31.30
10300;DHT22;5195;48.562;9.192;2023-04-03T16:56:55;9.20;30.20
10300;DHT22;5195;48.562;9.192;2023-04-03T16:59:31;9.10;30.80
10300;DHT22;5195;48.562;9.192;2023-04-03T17:02:06;9.30;29.90
10300;DHT22;5195;48.562;9.192;2023-04-03T17:04:42;9.50;29.40
10300;DHT22;5195;48.562;9.192;2023-04-03T17:07:18;9.70;29.80
10300;DHT22;5195;48.562;9.192;2023-04-03T17:09:53;9.90;29.40
10300;DHT22;5195;48.562;9.192;2023-04-03T17:12:30;9.70;30.00
10300;DHT22;5195;48.562;9.192;2023-04-03T17:15:06;9.30;30.70
10300;DHT22;5195;48.562;9.192;2023-04-03T17:17:41;9.00;31.20
10300;DHT22;5195;48.562;9.192;2023-04-03T17:20:18;9.20;30.10
10300;DHT22;5195;48.562;9.192;2023-04-03T17:22:54;9.10;30.80
10300;DHT22;5195;48.562;9.192;2023-04-03T17:25:30;8.90;31.10
10300;DHT22;5195;48.562;9.192;2023-04-03T17:28:06;9.30;29.60
10300;DHT22;5195;48.562;9.192;2023-04-03T17:30:41;9.30;29.70
10300;DHT22;5195;48.562;9.192;2023-04-03T17:33:17;9.50;29.60
10300;DHT22;5195;48.562;9.192;2023-04-03T17:35:55;9.30;30.10
10300;DHT22;5195;48.562;9.192;2023-04-03T17:38:29;8.70;31.10
10300;DHT22;5195;48.562;9.192;2023-04-03T17:41:06;8.70;31.30
10300;DHT22;5195;48.562;9.192;2023-04-03T17:43:41;9.00;29.80
10300;DHT22;5195;48.562;9.192;2023-04-03T17:46:17;9.00;29.80
10300;DHT22;5195;48.562;9.192;2023-04-03T17:48:52;8.90;30.30
10300;DHT22;5195;48.562;9.192;2023-04-03T17:51:29;9.00;29.60
10300;DHT22;5195;48.562;9.192;2023-04-03T17:54:04;9.00;29.60
10300;DHT22;5195;48.562;9.192;2023-04-03T17:56:40;9.10;29.20
10300;DHT22;5195;48.562;9.192;2023-04-03T17:59:16;9.20;29.20
10300;DHT22;5195;48.562;9.192;2023-04-03T18:01:51;9.30;29.00
10300;DHT22;5195;48.562;9.192;2023-04-03T18:04:27;9.30;28.80
10300;DHT22;5195;48.562;9.192;2023-04-03T18:07:03;9.30;28.80
10300;DHT22;5195;48.562;9.192;2023-04-03T18:09:39;9.00;29.60
10300;DHT22;5195;48.562;9.192;2023-04-03T18:12:14;8.90;29.30
10300;DHT22;5195;48.562;9.192;2023-04-03T18:14:50;9.00;29.10
10300;DHT22;5195;48.562;9.192;2023-04-03T18:17:25;8.80;29.80
10300;DHT22;5195;48.562;9.192;2023-04-03T18:20:01;8.50;30.50
10300;DHT22;5195;48.562;9.192;2023-04-03T18:22:37;8.50;29.90
10300;DHT22;5195;48.562;9.192;2023-04-03T18:25:12;8.70;29.30
10300;DHT22;5195;48.562;9.192;2023-04-03T18:27:48;8.50;29.90